Terminal Aerodrome Forecast
Issued by NWS

Home | Current Version | Previous Version | Text Only | Print | Product List | Glossary On
Versions: 1 2 3 4 5 6 7 8 9 10 11 12
000
FTAK31 PAJN 121100
TAFAKT
TAF
PAKT 121134Z 1212/1312 00000KT P6SM SKC
     FM121500 VRB04KT P6SM FEW120
     FM121800 12008KT P6SM FEW120
     FM130600 15008KT P6SM SCT120
     FM130900 32004KT P6SM SCT120
      AMD LTD TO CLD VIS AND WIND TIL 121500=

USA.gov is the U.S. government's official web portal to all federal, state and local government web resources and services.